Time;durP1;ratioP1;P1;durP2;ratioP2;P2;SDS_P1;SDS_P2;PMS_P1;PMS_P2;Temp;Humidity;BMP_temperature;BMP_pressure;BME280_temperature;BME280_humidity;BME280_pressure;Samples;Min_cycle;Max_cycle;Signal;HPM_P1;HPM_P2
2022/10/02 00:02:23;;;;;;;19.40;7.88;;;;;;;17.24;59.09;101333.22;5050885;28;20048;-71
2022/10/02 00:04:56;;;;;;;18.80;8.52;;;;;;;17.27;58.69;101331.09;5050400;28;20507;-71
2022/10/02 00:08:02;;;;;;;24.77;9.75;;;;;;;17.29;59.03;101333.66;5050195;28;20423;-72
2022/10/02 00:10:43;;;;;;;24.48;11.45;;;;;;;17.34;58.84;101336.81;5046339;28;20053;-72
2022/10/02 00:13:22;;;;;;;22.83;10.95;;;;;;;17.36;59.12;101330.22;5051256;28;20522;-72
2022/10/02 00:15:49;;;;;;;24.48;12.20;;;;;;;17.41;58.93;101327.09;5051444;28;20450;-72
2022/10/02 00:18:22;;;;;;;21.65;11.45;;;;;;;17.45;59.07;101328.53;5050773;28;20507;-70
2022/10/02 00:21:14;;;;;;;18.00;11.45;;;;;;;17.50;58.96;101330.81;5051280;28;20097;-71
2022/10/02 00:23:55;;;;;;;17.90;10.68;;;;;;;17.55;59.18;101329.41;5051093;28;20044;-71
2022/10/02 00:26:28;;;;;;;22.50;11.18;;;;;;;17.61;58.95;101327.97;5050009;28;20041;-71
2022/10/02 00:29:23;;;;;;;21.35;10.73;;;;;;;17.62;59.03;101327.81;5050722;28;20041;-70
2022/10/02 00:32:15;;;;;;;19.13;9.75;;;;;;;17.66;59.09;101323.84;5050919;28;20041;-70
2022/10/02 00:34:58;;;;;;;21.15;9.63;;;;;;;17.68;59.09;101326.41;5051230;28;20037;-70
2022/10/02 00:37:34;;;;;;;21.25;10.32;;;;;;;17.69;59.07;101331.72;5051144;28;20040;-70
2022/10/02 00:40:30;;;;;;;27.08;10.63;;;;;;;17.68;59.12;101329.13;5050068;28;20069;-71
2022/10/02 00:43:10;;;;;;;21.40;10.25;;;;;;;17.68;58.68;101335.44;5050750;28;20071;-69
2022/10/02 00:45:57;;;;;;;20.73;9.73;;;;;;;17.66;58.67;101326.56;5051238;28;20045;-70
2022/10/02 00:48:26;;;;;;;29.02;9.73;;;;;;;17.67;58.61;101327.44;5046096;28;20122;-70
2022/10/02 00:51:05;;;;;;;20.38;8.50;;;;;;;17.66;58.97;101334.72;5050890;28;20094;-71
2022/10/02 00:54:08;;;;;;;26.77;7.95;;;;;;;17.63;58.71;101331.41;5050787;28;20037;-70
2022/10/02 00:56:53;;;;;;;18.58;7.95;;;;;;;17.62;58.80;101329.69;5050820;28;20487;-70
2022/10/02 01:00:07;;;;;;;20.52;8.38;;;;;;;17.59;58.83;101335.41;5050383;28;20037;-70
2022/10/02 01:02:42;;;;;;;24.98;8.00;;;;;;;17.58;58.81;101325.53;5045354;28;20653;-70
2022/10/02 01:05:10;;;;;;;23.30;7.65;;;;;;;17.56;58.54;101322.97;5050960;28;20037;-70
2022/10/02 01:07:42;;;;;;;15.88;6.63;;;;;;;17.56;58.52;101316.66;5050787;28;20499;-71
2022/10/02 01:10:11;;;;;;;19.08;7.80;;;;;;;17.56;58.89;101320.25;5050054;28;20061;-69
2022/10/02 01:12:39;;;;;;;18.50;7.05;;;;;;;17.56;58.34;101317.53;5050643;28;20049;-70
2022/10/02 01:15:18;;;;;;;18.90;6.88;;;;;;;17.55;58.89;101314.97;5050765;28;20033;-70
2022/10/02 01:17:48;;;;;;;13.75;5.93;;;;;;;17.54;58.47;101319.53;5050323;28;20450;-70
2022/10/02 01:20:18;;;;;;;14.45;6.15;;;;;;;17.51;58.44;101319.81;5050442;28;20438;-70
2022/10/02 01:22:56;;;;;;;14.20;6.15;;;;;;;17.47;58.76;101319.25;5052805;28;20056;-70
2022/10/02 01:25:25;;;;;;;13.18;5.55;;;;;;;17.46;58.65;101316.66;5053282;28;20541;-70
2022/10/02 01:27:53;;;;;;;20.52;6.32;;;;;;;17.44;58.32;101321.38;5053397;28;20069;-70
2022/10/02 01:30:20;;;;;;;21.55;5.95;;;;;;;17.43;58.29;101312.38;5054407;28;20463;-70
2022/10/02 01:32:58;;;;;;;14.70;5.20;;;;;;;17.41;58.29;101314.38;5054084;28;20458;-70
2022/10/02 01:35:32;;;;;;;20.27;5.28;;;;;;;17.40;58.56;101319.94;5054484;28;20107;-71
2022/10/02 01:38:02;;;;;;;18.02;5.30;;;;;;;17.37;58.46;101317.53;5053527;28;20041;-70
2022/10/02 01:40:34;;;;;;;17.75;5.25;;;;;;;17.34;58.43;101321.38;5054179;28;20380;-70
2022/10/02 01:43:05;;;;;;;14.98;5.13;;;;;;;17.32;58.60;101320.66;5053848;28;20491;-71
2022/10/02 01:45:49;;;;;;;14.93;5.13;;;;;;;17.30;58.65;101321.78;5054025;28;20037;-70
2022/10/02 01:48:23;;;;;;;18.60;4.97;;;;;;;17.28;58.37;101319.22;5053296;28;20033;-70
2022/10/02 01:51:07;;;;;;;18.45;5.30;;;;;;;17.24;58.93;101325.94;5052210;28;20107;-70
2022/10/02 01:54:05;;;;;;;18.38;5.40;;;;;;;17.21;59.01;101322.63;5052606;28;20049;-71
2022/10/02 01:56:47;;;;;;;15.45;4.07;;;;;;;17.22;58.74;101329.78;5053486;28;20103;-70
2022/10/02 01:59:21;;;;;;;21.27;5.03;;;;;;;17.21;58.81;101328.06;5053151;28;20099;-71
2022/10/02 02:02:03;;;;;;;16.40;4.60;;;;;;;17.20;59.10;101324.50;5053435;28;20099;-71
2022/10/02 02:04:51;;;;;;;21.13;4.80;;;;;;;17.19;59.24;101322.78;5053412;28;20072;-71
2022/10/02 02:07:39;;;;;;;23.73;5.47;;;;;;;17.19;59.45;101319.22;5053044;28;20158;-70
2022/10/02 02:10:12;;;;;;;18.48;4.78;;;;;;;17.18;59.62;101322.91;5053085;28;20049;-71
2022/10/02 02:12:44;;;;;;;16.88;4.38;;;;;;;17.17;59.45;101326.63;5053288;28;20049;-71
2022/10/02 02:15:29;;;;;;;22.17;4.75;;;;;;;17.18;59.95;101317.50;5053382;28;20524;-70
2022/10/02 02:18:13;;;;;;;21.80;4.78;;;;;;;17.18;60.00;101326.50;5052372;28;20458;-70
2022/10/02 02:20:45;;;;;;;21.17;4.68;;;;;;;17.20;59.78;101329.06;5053108;28;20037;-69
2022/10/02 02:23:29;;;;;;;24.02;5.63;;;;;;;17.21;60.01;101330.78;5053022;28;20442;-69
2022/10/02 02:26:05;;;;;;;17.10;4.53;;;;;;;17.24;60.03;101344.06;5053550;28;20044;-70
2022/10/02 02:28:35;;;;;;;18.42;4.90;;;;;;;17.26;59.88;101337.50;5052732;28;20056;-70
2022/10/02 02:31:04;;;;;;;25.95;5.40;;;;;;;17.28;59.98;101338.22;5052953;28;20037;-70
2022/10/02 02:33:57;;;;;;;24.38;4.82;;;;;;;17.29;60.58;101337.22;5051971;28;20384;-70
2022/10/02 02:36:31;;;;;;;18.42;4.35;;;;;;;17.33;60.31;101335.09;5049165;28;20052;-70
2022/10/02 02:39:03;;;;;;;25.08;6.15;;;;;;;17.35;60.42;101333.94;5052959;28;20609;-70
2022/10/02 02:41:39;;;;;;;22.75;4.47;;;;;;;17.36;60.54;101340.25;5051140;28;20465;-71
2022/10/02 02:44:17;;;;;;;23.17;5.15;;;;;;;17.38;60.39;101333.66;5053042;28;20450;-71
2022/10/02 02:47:03;;;;;;;22.85;5.28;;;;;;;17.38;60.40;101336.38;5051178;28;20487;-70
2022/10/02 02:50:04;;;;;;;24.88;4.93;;;;;;;17.40;60.59;101337.09;5052889;28;20033;-69
2022/10/02 02:52:54;;;;;;;26.20;5.22;;;;;;;17.41;60.73;101327.94;5052229;28;20048;-70
2022/10/02 02:55:44;;;;;;;25.73;5.88;;;;;;;17.45;60.92;101332.09;5035175;28;20049;-70
2022/10/02 02:58:29;;;;;;;21.52;4.68;;;;;;;17.46;60.92;101341.97;5052371;28;20523;-70
2022/10/02 03:00:56;;;;;;;26.38;5.43;;;;;;;17.49;60.76;101335.38;5051654;28;20570;-71
2022/10/02 03:03:22;;;;;;;26.45;5.22;;;;;;;17.49;61.01;101343.53;5051834;28;20055;-70
2022/10/02 03:06:01;;;;;;;24.08;5.05;;;;;;;17.50;60.99;101350.69;5051847;28;20373;-70
2022/10/02 03:08:33;;;;;;;19.52;5.07;;;;;;;17.50;60.91;101345.25;5052659;28;20522;-71
2022/10/02 03:11:15;;;;;;;26.85;6.97;;;;;;;17.53;61.46;101341.41;5051707;28;20087;-70
2022/10/02 03:14:07;;;;;;;25.08;5.05;;;;;;;17.55;61.36;101331.25;5052271;28;20499;-70
2022/10/02 03:17:08;;;;;;;20.70;4.70;;;;;;;17.54;61.48;101327.69;5052278;28;20067;-70
2022/10/02 03:19:55;;;;;;;24.48;6.18;;;;;;;17.55;61.09;101326.69;5052338;28;20091;-70
2022/10/02 03:22:40;;;;;;;20.83;4.90;;;;;;;17.56;61.50;101324.81;5051772;28;20545;-70
2022/10/02 03:25:13;;;;;;;20.00;5.15;;;;;;;17.56;61.19;101333.81;5052263;28;20128;-70
2022/10/02 03:28:00;;;;;;;20.80;5.13;;;;;;;17.54;61.53;101333.09;5052183;28;20087;-71
2022/10/02 03:30:29;;;;;;;20.65;7.13;;;;;;;17.54;61.20;101329.53;5051570;28;20501;-70
2022/10/02 03:32:59;;;;;;;16.10;4.55;;;;;;;17.54;61.34;101334.97;5051533;28;20063;-70
2022/10/02 03:35:27;;;;;;;15.20;4.38;;;;;;;17.53;61.49;101336.81;5051895;28;20095;-69
2022/10/02 03:37:59;;;;;;;19.75;4.30;;;;;;;17.53;61.29;101334.09;5051514;28;20037;-70
2022/10/02 03:40:26;;;;;;;19.08;5.30;;;;;;;17.54;61.40;101337.69;5051894;28;20102;-70
2022/10/02 03:42:57;;;;;;;17.00;4.28;;;;;;;17.52;61.32;101340.53;5050253;28;20414;-70
2022/10/02 03:45:25;;;;;;;15.07;4.30;;;;;;;17.53;61.08;101342.25;5050069;28;20492;-70
2022/10/02 03:48:11;;;;;;;16.65;3.92;;;;;;;17.53;61.42;101341.41;5049857;28;20595;-69
2022/10/02 03:50:38;;;;;;;16.13;3.75;;;;;;;17.52;61.38;101343.25;5050467;28;20103;-69
2022/10/02 03:53:20;;;;;;;11.10;3.70;;;;;;;17.51;61.23;101332.53;5050187;28;20052;-70
2022/10/02 03:56:05;;;;;;;14.13;3.55;;;;;;;17.51;61.21;101333.38;5051900;28;20037;-70
2022/10/02 03:58:33;;;;;;;15.70;3.30;;;;;;;17.51;61.24;101341.53;5050956;28;20550;-70
2022/10/02 04:01:23;;;;;;;11.85;3.17;;;;;;;17.49;61.26;101338.09;5051825;28;20039;-71
2022/10/02 04:04:13;;;;;;;14.82;3.70;;;;;;;17.48;61.07;101345.41;5051352;28;20068;-71
2022/10/02 04:06:47;;;;;;;14.85;3.78;;;;;;;17.49;61.27;101346.25;5051452;28;20250;-71
2022/10/02 04:09:36;;;;;;;10.73;3.60;;;;;;;17.48;61.45;101339.97;5050750;28;20041;-71
2022/10/02 04:12:10;;;;;;;13.65;3.22;;;;;;;17.48;61.25;101345.41;5051247;28;20048;-71
2022/10/02 04:14:43;;;;;;;14.20;3.42;;;;;;;17.48;61.13;101350.81;5051855;28;20303;-71
2022/10/02 04:17:34;;;;;;;14.52;3.15;;;;;;;17.48;61.11;101345.41;5051229;28;20037;-71
2022/10/02 04:20:11;;;;;;;11.05;3.15;;;;;;;17.48;61.28;101339.97;5050657;28;20060;-71
2022/10/02 04:23:02;;;;;;;9.30;3.70;;;;;;;17.48;61.45;101341.81;5049805;28;20053;-71
2022/10/02 04:25:35;;;;;;;12.52;4.03;;;;;;;17.50;61.48;101336.25;5050843;28;20099;-70
2022/10/02 04:28:06;;;;;;;9.10;3.75;;;;;;;17.50;61.38;101344.41;5051088;28;20099;-71
2022/10/02 04:30:33;;;;;;;9.23;3.20;;;;;;;17.49;61.35;101335.38;5051292;28;20051;-70
2022/10/02 04:33:16;;;;;;;11.85;3.50;;;;;;;17.49;61.69;101335.38;5051034;28;20037;-71
2022/10/02 04:36:01;;;;;;;7.32;3.47;;;;;;;17.48;61.55;101330.97;5051062;28;20045;-71
2022/10/02 04:38:53;;;;;;;12.00;3.30;;;;;;;17.47;61.48;101340.97;5050678;28;20051;-71
2022/10/02 04:41:26;;;;;;;10.25;3.42;;;;;;;17.46;61.43;101335.69;5051020;28;20040;-72
2022/10/02 04:44:07;;;;;;;13.38;3.65;;;;;;;17.45;61.40;101345.69;5051162;28;20067;-72
2022/10/02 04:47:11;;;;;;;8.20;3.22;;;;;;;17.42;61.32;101353.25;5049244;28;20041;-71
2022/10/02 04:49:58;;;;;;;12.82;3.65;;;;;;;17.42;61.54;101369.53;5050258;28;20067;-70
2022/10/02 04:52:37;;;;;;;12.63;4.40;;;;;;;17.38;61.28;101368.97;5033285;28;20411;-70
2022/10/02 04:55:12;;;;;;;12.15;3.70;;;;;;;17.37;61.63;101374.53;5049891;28;20045;-70
2022/10/02 04:57:48;;;;;;;9.35;3.45;;;;;;;17.35;61.39;101374.69;5053119;28;20037;-70
2022/10/02 05:00:19;;;;;;;9.65;3.75;;;;;;;17.34;61.16;101378.38;5054817;28;20053;-72
2022/10/02 05:03:10;;;;;;;10.75;3.85;;;;;;;17.32;61.31;101380.38;5055006;28;20041;-71
2022/10/02 05:05:46;;;;;;;10.52;4.07;;;;;;;17.31;61.39;101394.09;5053710;28;20063;-71
2022/10/02 05:08:37;;;;;;;8.75;3.85;;;;;;;17.31;61.59;101391.38;5054004;28;20037;-72
2022/10/02 05:11:09;;;;;;;7.55;3.90;;;;;;;17.27;61.21;101387.22;5054997;28;20045;-72
2022/10/02 05:14:17;;;;;;;9.07;3.97;;;;;;;17.25;61.58;101387.38;5054616;28;20041;-72
2022/10/02 05:16:49;;;;;;;9.38;4.55;;;;;;;17.25;61.27;101389.22;5054633;28;20106;-72
2022/10/02 05:19:48;;;;;;;10.02;4.90;;;;;;;17.22;61.53;101379.50;5054252;28;20095;-72
2022/10/02 05:22:50;;;;;;;9.73;4.85;;;;;;;17.21;61.75;101375.06;5054340;28;20033;-71
2022/10/02 05:25:46;;;;;;;12.85;5.43;;;;;;;17.18;61.41;101382.63;5054511;28;20453;-71
2022/10/02 05:28:31;;;;;;;11.70;5.32;;;;;;;17.19;61.21;101382.50;5053054;28;20040;-71
2022/10/02 05:31:16;;;;;;;9.48;5.50;;;;;;;17.17;61.45;101389.06;5054304;28;20041;-70
2022/10/02 05:34:13;;;;;;;15.40;6.03;;;;;;;17.17;61.32;101395.34;5054794;28;20527;-71
2022/10/02 05:36:58;;;;;;;12.38;5.68;;;;;;;17.16;61.45;101404.50;5052709;28;20450;-71
2022/10/02 05:39:35;;;;;;;11.18;6.50;;;;;;;17.15;61.46;101403.63;5054284;28;20044;-70
2022/10/02 05:42:01;;;;;;;13.77;6.95;;;;;;;17.16;61.51;101409.91;5054025;28;20554;-71
2022/10/02 05:44:41;;;;;;;15.30;7.72;;;;;;;17.15;61.62;101410.91;5053975;28;20056;-70
2022/10/02 05:47:21;;;;;;;22.48;7.35;;;;;;;17.14;61.86;101407.34;5054297;28;20053;-70
2022/10/02 05:49:55;;;;;;;15.82;6.57;;;;;;;17.16;61.50;101409.91;5053711;28;20052;-71
2022/10/02 05:52:28;;;;;;;13.20;6.70;;;;;;;17.16;61.83;101420.78;5053904;28;20037;-70
2022/10/02 05:55:02;;;;;;;16.58;7.60;;;;;;;17.17;61.98;101416.19;5053485;28;20438;-70
2022/10/02 05:57:37;;;;;;;16.92;7.47;;;;;;;17.19;61.56;101420.50;5053951;28;20438;-70
2022/10/02 06:00:22;;;;;;;19.87;7.23;;;;;;;17.19;61.75;101420.50;5053955;28;20060;-72
2022/10/02 06:03:08;;;;;;;;;;;;;;;17.21;61.49;101420.34;5053799;28;20037;-70
2022/10/02 06:05:45;;;;;;;17.58;6.95;;;;;;;17.26;61.43;101420.81;5033716;28;19929;-70
2022/10/02 06:08:17;;;;;;;14.52;6.68;;;;;;;17.25;61.87;101429.94;5032662;28;20589;-70
2022/10/02 06:10:55;;;;;;;21.58;8.23;;;;;;;17.23;61.89;101427.38;5033762;28;20088;-71
2022/10/02 06:13:28;;;;;;;17.98;8.02;;;;;;;17.22;61.80;101419.38;5037486;28;20045;-71
2022/10/02 06:16:34;;;;;;;18.05;8.65;;;;;;;17.18;61.64;101421.50;5052111;28;20041;-71
2022/10/02 06:19:28;;;;;;;19.73;9.15;;;;;;;17.17;61.68;101424.34;5053475;28;20037;-70
2022/10/02 06:22:09;;;;;;;20.50;10.05;;;;;;;17.18;61.67;101443.22;5053152;28;20033;-71
2022/10/02 06:24:54;;;;;;;19.15;10.35;;;;;;;17.17;62.03;101446.91;5053064;28;20102;-72
2022/10/02 06:27:35;;;;;;;18.88;10.70;;;;;;;17.20;61.90;101456.66;5053301;28;20041;-72
2022/10/02 06:30:04;;;;;;;23.02;12.43;;;;;;;17.21;61.88;101452.94;5053087;28;20045;-72
2022/10/02 06:32:41;;;;;;;27.67;12.63;;;;;;;17.24;62.48;101458.09;5053143;28;20101;-74
2022/10/02 06:35:14;;;;;;;25.70;11.35;;;;;;;17.27;62.41;101457.81;5052136;28;20048;-74
2022/10/02 06:37:48;;;;;;;20.48;11.88;;;;;;;17.29;62.14;101456.69;5052014;28;20044;-74
2022/10/02 06:40:17;;;;;;;27.23;11.88;;;;;;;17.32;62.14;101455.53;5053001;28;20511;-74
2022/10/02 06:42:57;;;;;;;24.42;12.13;;;;;;;17.35;62.41;101457.97;5053427;28;20048;-74
2022/10/02 06:45:52;;;;;;;23.45;12.27;;;;;;;17.35;62.68;101453.41;5051753;28;20049;-74
2022/10/02 06:48:39;;;;;;;26.35;13.05;;;;;;;17.37;62.50;101456.84;5051823;28;20128;-74
2022/10/02 06:51:28;;;;;;;22.42;12.32;;;;;;;17.41;62.41;101462.84;5052807;28;20487;-76
2022/10/02 06:53:58;;;;;;;30.00;12.18;;;;;;;17.45;62.72;101457.00;5035107;28;20045;-75
2022/10/02 06:56:51;;;;;;;23.70;12.23;;;;;;;17.48;63.04;101464.03;5051538;28;20045;-72
2022/10/02 06:59:25;;;;;;;23.38;12.10;;;;;;;17.53;62.60;101475.31;5051425;28;20041;-72
2022/10/02 07:01:58;;;;;;;30.05;12.20;;;;;;;17.58;62.86;101475.78;5051275;28;20099;-72
2022/10/02 07:04:30;;;;;;;30.02;11.20;;;;;;;17.61;63.25;101480.94;5051465;28;20075;-72
2022/10/02 07:07:01;;;;;;;28.90;11.23;;;;;;;17.66;62.95;101485.94;5053023;28;20041;-72
2022/10/02 07:09:38;;;;;;;24.73;10.32;;;;;;;17.70;63.47;101491.00;5051248;28;20098;-72
2022/10/02 07:12:20;;;;;;;24.98;10.50;;;;;;;17.75;63.63;101483.28;5052677;28;20136;-72
2022/10/02 07:15:25;;;;;;;22.90;10.27;;;;;;;17.80;63.22;101485.56;5052622;28;20403;-72
2022/10/02 07:17:59;;;;;;;23.73;9.43;;;;;;;17.86;63.15;101486.91;5052303;28;20045;-72
2022/10/02 07:20:50;;;;;;;27.10;9.52;;;;;;;17.89;63.74;101489.34;5052043;28;20476;-72
2022/10/02 07:23:58;;;;;;;25.90;8.90;;;;;;;17.94;63.59;101492.50;5052014;28;20068;-73
2022/10/02 07:26:52;;;;;;;25.35;8.30;;;;;;;17.98;63.80;101499.38;5052341;28;20064;-72
2022/10/02 07:29:32;;;;;;;25.80;7.88;;;;;;;18.03;63.53;101488.94;5052202;28;20037;-72
2022/10/02 07:32:17;;;;;;;22.08;7.85;;;;;;;18.06;64.11;101486.78;5052043;28;20040;-72
2022/10/02 07:35:21;;;;;;;24.95;8.30;;;;;;;18.12;63.99;101485.34;5052081;28;20049;-73
2022/10/02 07:37:56;;;;;;;23.92;9.13;;;;;;;18.17;63.82;101490.38;5051967;28;20110;-73
2022/10/02 07:40:36;;;;;;;25.60;7.97;;;;;;;18.20;63.81;101493.66;5051934;28;20503;-72
2022/10/02 07:43:50;;;;;;;19.98;7.28;;;;;;;18.23;63.86;101503.38;5051774;28;20095;-72
2022/10/02 07:46:58;;;;;;;19.77;7.15;;;;;;;18.29;63.98;101513.69;5051937;28;20148;-72
2022/10/02 07:49:55;;;;;;;21.30;7.63;;;;;;;18.33;63.75;101513.25;5048657;28;20053;-72
2022/10/02 07:52:39;;;;;;;25.67;8.85;;;;;;;18.38;63.97;101513.69;5050523;28;20311;-72
2022/10/02 07:55:20;;;;;;;17.92;7.93;;;;;;;18.45;64.01;101513.13;5051779;28;20045;-72
2022/10/02 07:57:56;;;;;;;20.83;8.77;;;;;;;18.53;64.13;101519.56;5051631;28;20491;-72
2022/10/02 08:00:24;;;;;;;25.23;8.60;;;;;;;18.64;64.22;101524.06;5051843;28;20360;-73
2022/10/02 08:03:14;;;;;;;26.02;10.73;;;;;;;18.73;64.22;101531.34;5051570;28;20045;-72
2022/10/02 08:05:50;;;;;;;19.85;9.80;;;;;;;18.84;64.31;101536.63;5029191;28;20081;-72
2022/10/02 08:08:24;;;;;;;25.17;8.93;;;;;;;18.94;64.37;101523.00;5049973;28;20111;-72
2022/10/02 08:10:57;;;;;;;21.02;8.85;;;;;;;19.00;63.98;101534.16;5051752;28;20037;-72
2022/10/02 08:13:31;;;;;;;23.30;8.40;;;;;;;19.07;64.01;101525.41;5051275;28;20091;-72
2022/10/02 08:15:59;;;;;;;18.48;8.60;;;;;;;19.14;64.04;101540.13;5051410;28;20044;-72
2022/10/02 08:18:34;;;;;;;18.70;7.60;;;;;;;19.19;63.80;101535.09;5051117;28;20095;-72
2022/10/02 08:21:13;;;;;;;15.75;8.13;;;;;;;19.23;63.96;101541.97;5051263;28;20128;-71
2022/10/02 08:26:28;;;;;;;19.95;8.75;;;;;;;19.32;63.71;101551.97;5051178;28;20037;-71
2022/10/02 08:29:14;;;;;;;17.83;9.30;;;;;;;19.40;63.60;101556.72;5050554;28;20071;-70
2022/10/02 08:31:41;;;;;;;19.20;9.95;;;;;;;19.46;63.64;101559.69;5045786;28;20106;-70
2022/10/02 08:34:24;;;;;;;16.77;8.93;;;;;;;19.50;63.39;101562.97;5050961;28;20090;-71
2022/10/02 08:37:09;;;;;;;18.52;9.05;;;;;;;19.52;62.98;101561.84;5047570;28;20486;-70
2022/10/02 08:40:13;;;;;;;20.98;9.30;;;;;;;19.58;62.95;101565.84;5051053;28;20466;-70
2022/10/02 08:43:52;;;;;;;16.88;9.38;;;;;;;19.62;62.96;101565.41;5050871;28;20099;-70
2022/10/02 08:46:37;;;;;;;17.83;8.80;;;;;;;19.69;63.00;101571.09;5039848;28;20407;-71
2022/10/02 08:49:37;;;;;;;;;;;;;;;19.73;62.76;101577.97;5051378;28;20064;-70
2022/10/02 08:52:26;;;;;;;18.85;9.00;;;;;;;19.78;62.73;101589.28;5050948;28;20321;-71
2022/10/02 08:55:30;;;;;;;20.98;10.02;;;;;;;19.75;62.51;101591.44;5031227;28;20455;-71
2022/10/02 08:58:15;;;;;;;20.20;10.32;;;;;;;19.73;62.16;101597.03;5030809;28;20033;-71
2022/10/02 09:00:54;;;;;;;14.57;8.65;;;;;;;19.74;62.33;101597.91;5030974;28;20045;-70
2022/10/02 09:03:59;;;;;;;21.30;10.57;;;;;;;19.74;62.34;101609.66;5029751;28;20033;-72
2022/10/02 09:06:44;;;;;;;20.40;10.18;;;;;;;19.82;62.29;101600.72;5030697;28;20095;-71
2022/10/02 09:09:31;;;;;;;19.75;9.15;;;;;;;19.85;62.16;101605.88;5031082;28;20045;-70
2022/10/02 09:12:07;;;;;;;12.80;7.57;;;;;;;19.85;62.03;101609.47;5009540;28;20500;-68
2022/10/02 09:15:02;;;;;;;15.05;8.65;;;;;;;19.84;62.01;101612.34;5030967;28;20103;-71
2022/10/02 09:17:45;;;;;;;17.90;7.40;;;;;;;19.86;61.85;101619.38;5032871;28;20096;-70
2022/10/02 09:20:14;;;;;;;15.85;6.13;;;;;;;19.86;61.64;101619.38;5050256;28;20057;-70
2022/10/02 09:23:00;;;;;;;15.98;6.05;;;;;;;19.86;61.54;101622.09;5048897;28;20045;-70
2022/10/02 09:25:39;;;;;;;15.68;5.53;;;;;;;19.87;61.01;101617.50;5050129;28;20041;-71
2022/10/02 09:28:24;;;;;;;18.00;5.78;;;;;;;19.89;61.21;101616.34;5050409;28;20087;-70
2022/10/02 09:31:28;;;;;;;13.98;4.45;;;;;;;19.96;61.21;101608.41;5050231;28;20483;-71
2022/10/02 09:34:01;;;;;;;10.90;4.93;;;;;;;20.07;61.12;101610.09;5049868;28;20044;-70
2022/10/02 09:36:45;;;;;;;13.07;5.75;;;;;;;20.16;60.95;101612.78;5050241;28;20045;-70
2022/10/02 09:39:50;;;;;;;12.07;5.65;;;;;;;20.25;61.03;101605.53;5050398;28;20048;-71
2022/10/02 09:42:54;;;;;;;18.63;5.15;;;;;;;20.34;60.76;101609.22;5050161;28;20036;-71
2022/10/02 09:45:35;;;;;;;16.58;4.47;;;;;;;20.39;60.80;101620.53;5052295;28;20405;-70
2022/10/02 09:48:34;;;;;;;15.35;4.10;;;;;;;20.42;60.51;101612.06;5052714;28;20045;-70
2022/10/02 09:51:42;;;;;;;11.75;3.72;;;;;;;20.45;59.79;101620.81;5048158;28;20049;-71
2022/10/02 09:54:44;;;;;;;10.73;3.22;;;;;;;20.49;59.55;101624.06;5043931;28;20455;-71
2022/10/02 09:57:55;;;;;;;11.57;3.10;;;;;;;20.54;59.51;101627.19;5050415;28;20040;-70
2022/10/02 10:00:45;;;;;;;14.57;3.70;;;;;;;20.61;59.13;101631.88;5053008;28;20049;-70
2022/10/02 10:03:35;;;;;;;16.38;3.67;;;;;;;20.66;59.22;101631.41;5053633;28;20040;-70
2022/10/02 10:06:21;;;;;;;15.43;3.85;;;;;;;20.72;58.85;101624.47;5053619;28;20099;-70
2022/10/02 10:09:05;;;;;;;;;;;;;;;20.78;58.81;101632.03;5053600;28;20037;-69
2022/10/02 10:12:12;;;;;;;13.18;3.08;;;;;;;20.91;58.84;101630.66;5053296;28;19933;-69
2022/10/02 10:15:04;;;;;;;11.23;3.25;;;;;;;21.03;58.32;101631.28;5053282;28;20049;-70
2022/10/02 10:17:58;;;;;;;11.85;3.42;;;;;;;21.15;58.29;101626.41;5052648;28;20041;-70
2022/10/02 10:20:42;;;;;;;12.15;2.47;;;;;;;21.28;58.02;101635.09;5053567;28;20291;-69
2022/10/02 10:23:34;;;;;;;9.85;3.20;;;;;;;21.41;57.80;101634.66;5053088;28;20033;-70
2022/10/02 10:26:20;;;;;;;9.73;2.60;;;;;;;21.51;57.42;101643.63;5052674;28;20551;-71
2022/10/02 10:29:06;;;;;;;10.43;2.67;;;;;;;21.59;56.78;101642.84;5052515;28;20033;-70
2022/10/02 10:31:51;;;;;;;;;;;;;;;21.68;56.91;101658.28;5053364;28;20045;-71
2022/10/02 10:34:56;;;;;;;16.73;3.08;;;;;;;21.80;56.65;101659.72;5053892;28;20267;-73
2022/10/02 10:40:53;;;;;;;11.30;3.08;;;;;;;21.92;55.76;101649.34;5053090;28;20115;-71
2022/10/02 10:43:43;;;;;;;15.60;2.92;;;;;;;21.98;55.28;101662.38;5052576;28;20025;-72
2022/10/02 10:46:31;;;;;;;5.97;2.47;;;;;;;21.96;55.00;101668.00;5052799;28;20535;-72
2022/10/02 10:49:16;;;;;;;13.23;2.65;;;;;;;21.93;54.17;101668.31;5051686;28;20041;-70
2022/10/02 10:52:20;;;;;;;11.23;2.57;;;;;;;21.83;54.14;101673.91;5051582;28;20052;-73
2022/10/02 10:54:54;;;;;;;14.52;2.50;;;;;;;21.88;54.20;101682.50;5052264;28;20045;-71
2022/10/02 10:57:27;;;;;;;11.68;2.50;;;;;;;21.95;53.82;101679.09;5052420;28;20045;-71
2022/10/02 11:00:10;;;;;;;12.77;2.70;;;;;;;22.04;53.57;101678.16;5052504;28;20474;-73
2022/10/02 11:02:37;;;;;;;8.95;2.47;;;;;;;22.13;53.16;101680.75;5052167;28;20554;-74
2022/10/02 11:05:34;;;;;;;7.63;2.45;;;;;;;22.14;52.74;101677.00;5053067;28;20128;-70
2022/10/02 11:08:19;;;;;;;8.35;1.98;;;;;;;22.22;52.67;101676.19;5052710;28;20079;-74
2022/10/02 11:10:59;;;;;;;12.60;2.60;;;;;;;22.31;52.50;101677.09;5051191;28;20420;-72
2022/10/02 11:14:15;;;;;;;7.53;3.03;;;;;;;22.36;52.29;101672.84;5051734;28;20049;-71
2022/10/02 11:17:00;;;;;;;9.40;2.63;;;;;;;22.44;51.95;101674.75;5032617;28;20123;-72
2022/10/02 11:19:50;;;;;;;12.15;2.28;;;;;;;22.49;51.49;101675.97;5052332;28;20045;-73
2022/10/02 11:22:49;;;;;;;10.73;2.40;;;;;;;22.49;51.20;101675.13;5033996;28;20487;-72
2022/10/02 11:25:44;;;;;;;10.98;3.40;;;;;;;22.46;51.28;101691.88;5052198;28;20495;-71
2022/10/02 11:28:32;;;;;;;10.18;2.38;;;;;;;22.37;50.96;101688.25;5052138;28;20041;-73
2022/10/02 11:31:10;;;;;;;7.45;2.00;;;;;;;22.25;50.70;101689.53;5052017;28;20053;-72
2022/10/02 11:34:19;;;;;;;11.13;2.15;;;;;;;22.13;50.58;101691.72;5051889;28;20056;-74
2022/10/02 11:37:08;;;;;;;8.82;2.03;;;;;;;22.03;50.73;101688.25;5051476;28;20434;-72
2022/10/02 11:39:35;;;;;;;9.68;2.20;;;;;;;21.98;50.62;101703.41;5052031;28;20052;-74
2022/10/02 11:42:25;;;;;;;11.07;2.90;;;;;;;21.88;50.49;101700.78;5051472;28;20037;-69
2022/10/02 11:45:03;;;;;;;8.35;2.30;;;;;;;21.82;50.56;101707.75;5052009;28;20044;-69
2022/10/02 11:48:00;;;;;;;14.07;2.25;;;;;;;21.75;50.44;101706.69;5050620;28;20041;-69
2022/10/02 11:50:44;;;;;;;11.55;2.63;;;;;;;21.71;50.79;101710.75;5051278;28;20025;-69
2022/10/02 11:53:10;;;;;;;12.27;2.42;;;;;;;21.70;50.87;101705.44;5051609;28;20090;-69
2022/10/02 11:55:57;;;;;;;10.82;2.33;;;;;;;21.64;50.90;101715.16;5051633;28;20041;-69
2022/10/02 11:58:44;;;;;;;8.25;2.65;;;;;;;21.62;50.62;101710.84;5051629;28;20565;-69
2022/10/02 12:01:32;;;;;;;10.52;2.40;;;;;;;21.62;50.95;101706.25;5051576;28;20037;-69
2022/10/02 12:04:18;;;;;;;11.57;2.80;;;;;;;21.62;51.10;101705.38;5051177;28;20422;-69
2022/10/02 12:07:04;;;;;;;8.50;2.50;;;;;;;21.67;51.30;101708.50;5050293;28;20107;-70
2022/10/02 12:10:13;;;;;;;12.18;3.40;;;;;;;21.75;51.52;101706.69;5051425;28;20040;-69
2022/10/02 12:12:50;;;;;;;9.93;2.58;;;;;;;21.83;51.23;101708.59;5050946;28;20091;-69
2022/10/02 12:15:38;;;;;;;12.05;3.30;;;;;;;21.86;51.58;101714.63;5051747;28;20040;-70
2022/10/02 12:18:30;;;;;;;9.48;2.55;;;;;;;21.90;51.31;101717.88;5032509;28;20045;-69
2022/10/02 12:26:57;;;;;;;9.57;2.55;;;;;;;21.95;51.34;101720.13;5051320;28;20052;-69
2022/10/02 12:27:44;;;;;;;8.15;2.10;;;;;;;21.99;51.42;101730.59;5049936;28;20450;-70
2022/10/02 12:30:17;;;;;;;8.43;2.28;;;;;;;22.01;51.12;101723.06;5051020;28;20033;-69
2022/10/02 12:33:06;;;;;;;9.85;1.92;;;;;;;22.03;50.73;101721.06;5049280;28;20033;-70
2022/10/02 12:35:41;;;;;;;6.70;2.25;;;;;;;22.03;50.31;101714.75;5049896;28;20053;-69
2022/10/02 12:38:11;;;;;;;11.38;2.42;;;;;;;22.05;50.43;101724.50;5050409;28;20095;-70
2022/10/02 12:41:08;;;;;;;11.13;2.58;;;;;;;22.14;50.31;101718.03;5049742;28;20351;-69
2022/10/02 12:44:09;;;;;;;7.45;2.08;;;;;;;22.26;50.11;101720.50;5050872;28;20045;-69